sensor_id;sensor_type;location;lat;lon;timestamp;pressure;altitude;pressure_sealevel;temperature;humidity
3260;BME280;22469;48.150;14.004;2023-01-29T00:00:05;99014.94;;;5.55;68.62
3260;BME280;22469;48.150;14.004;2023-01-29T00:02:36;99014.09;;;5.54;68.33
3260;BME280;22469;48.150;14.004;2023-01-29T00:05:06;99012.41;;;5.58;68.29
3260;BME280;22469;48.150;14.004;2023-01-29T00:07:52;99014.94;;;5.59;68.54
3260;BME280;22469;48.150;14.004;2023-01-29T00:10:19;99014.94;;;5.59;67.46
3260;BME280;22469;48.150;14.004;2023-01-29T00:12:46;99009.84;;;5.53;68.12
3260;BME280;22469;48.150;14.004;2023-01-29T00:15:13;99014.94;;;5.52;67.42
3260;BME280;22469;48.150;14.004;2023-01-29T00:17:40;99015.75;;;5.44;67.49
3260;BME280;22469;48.150;14.004;2023-01-29T00:20:08;99013.19;;;5.41;67.45
3260;BME280;22469;48.150;14.004;2023-01-29T00:22:35;99009.78;;;5.41;67.58
3260;BME280;22469;48.150;14.004;2023-01-29T00:25:02;99016.59;;;5.46;67.47
3260;BME280;22469;48.150;14.004;2023-01-29T00:27:30;99011.47;;;5.43;67.40
3260;BME280;22469;48.150;14.004;2023-01-29T00:29:57;99014.00;;;5.39;67.29
3260;BME280;22469;48.150;14.004;2023-01-29T00:32:41;99022.56;;;5.47;67.19
3260;BME280;22469;48.150;14.004;2023-01-29T00:35:08;99018.31;;;5.51;67.65
3260;BME280;22469;48.150;14.004;2023-01-29T00:37:35;99017.44;;;5.50;67.00
3260;BME280;22469;48.150;14.004;2023-01-29T00:40:04;99017.47;;;5.47;66.95
3260;BME280;22469;48.150;14.004;2023-01-29T00:42:31;99011.50;;;5.50;66.63
3260;BME280;22469;48.150;14.004;2023-01-29T00:45:17;99014.94;;;5.52;67.13
3260;BME280;22469;48.150;14.004;2023-01-29T00:47:44;99021.66;;;5.42;67.06
3260;BME280;22469;48.150;14.004;2023-01-29T00:50:11;99025.91;;;5.43;66.99
3260;BME280;22469;48.150;14.004;2023-01-29T00:52:40;99018.28;;;5.46;66.79
3260;BME280;22469;48.150;14.004;2023-01-29T00:55:08;99015.75;;;5.49;66.90
3260;BME280;22469;48.150;14.004;2023-01-29T00:57:37;99013.22;;;5.49;67.32
3260;BME280;22469;48.150;14.004;2023-01-29T01:00:08;99020.84;;;5.49;67.16
3260;BME280;22469;48.150;14.004;2023-01-29T01:02:37;99030.97;;;5.43;67.15
3260;BME280;22469;48.150;14.004;2023-01-29T01:05:22;99016.56;;;5.42;66.61
3260;BME280;22469;48.150;14.004;2023-01-29T01:07:53;99020.00;;;5.47;67.25
3260;BME280;22469;48.150;14.004;2023-01-29T01:10:29;99014.94;;;5.52;67.30
3260;BME280;22469;48.150;14.004;2023-01-29T01:13:04;99016.66;;;5.54;67.25
3260;BME280;22469;48.150;14.004;2023-01-29T01:15:37;99017.47;;;5.56;67.19
3260;BME280;22469;48.150;14.004;2023-01-29T01:18:05;99017.47;;;5.52;67.47
3260;BME280;22469;48.150;14.004;2023-01-29T01:20:34;99017.44;;;5.44;67.31
3260;BME280;22469;48.150;14.004;2023-01-29T01:23:02;99025.00;;;5.33;67.18
3260;BME280;22469;48.150;14.004;2023-01-29T01:25:30;99017.34;;;5.27;67.78
3260;BME280;22469;48.150;14.004;2023-01-29T01:27:58;99022.47;;;5.35;67.71
3260;BME280;22469;48.150;14.004;2023-01-29T01:30:25;99026.72;;;5.36;67.95
3260;BME280;22469;48.150;14.004;2023-01-29T01:32:53;99022.47;;;5.35;68.03
3260;BME280;22469;48.150;14.004;2023-01-29T01:35:20;99024.13;;;5.27;68.12
3260;BME280;22469;48.150;14.004;2023-01-29T01:37:47;99026.66;;;5.23;67.79
3260;BME280;22469;48.150;14.004;2023-01-29T01:40:20;99035.09;;;5.18;67.91
3260;BME280;22469;48.150;14.004;2023-01-29T01:42:53;99018.19;;;5.23;68.35
3260;BME280;22469;48.150;14.004;2023-01-29T01:45:34;99016.50;;;5.28;68.95
3260;BME280;22469;48.150;14.004;2023-01-29T01:50:44;99015.69;;;5.31;68.65
3260;BME280;22469;48.150;14.004;2023-01-29T01:53:19;99013.94;;;5.30;68.44
3260;BME280;22469;48.150;14.004;2023-01-29T01:55:57;99018.16;;;5.21;68.57
3260;BME280;22469;48.150;14.004;2023-01-29T01:58:37;99019.72;;;4.96;68.67
3260;BME280;22469;48.150;14.004;2023-01-29T02:01:07;99010.44;;;5.05;68.55
3260;BME280;22469;48.150;14.004;2023-01-29T02:04:01;99013.00;;;5.11;69.12
3260;BME280;22469;48.150;14.004;2023-01-29T02:06:46;99006.22;;;5.10;68.94
3260;BME280;22469;48.150;14.004;2023-01-29T02:09:45;98996.06;;;5.16;69.27
3260;BME280;22469;48.150;14.004;2023-01-29T02:12:19;99003.72;;;5.17;68.98
3260;BME280;22469;48.150;14.004;2023-01-29T02:14:47;99002.03;;;5.16;68.55
3260;BME280;22469;48.150;14.004;2023-01-29T02:17:16;99001.16;;;5.11;68.44
3260;BME280;22469;48.150;14.004;2023-01-29T02:26:00;99017.88;;;4.80;68.83
3260;BME280;22469;48.150;14.004;2023-01-29T02:29:06;99023.75;;;4.74;69.25
3260;BME280;22469;48.150;14.004;2023-01-29T02:32:46;99033.97;;;4.81;69.11
3260;BME280;22469;48.150;14.004;2023-01-29T02:35:27;99033.88;;;4.65;69.30
3260;BME280;22469;48.150;14.004;2023-01-29T02:41:01;99044.94;;;4.75;69.26
3260;BME280;22469;48.150;14.004;2023-01-29T02:49:26;99039.56;;;4.40;70.24
3260;BME280;22469;48.150;14.004;2023-01-29T02:52:08;99041.31;;;4.47;69.97
3260;BME280;22469;48.150;14.004;2023-01-29T02:54:45;99044.69;;;4.47;70.01
3260;BME280;22469;48.150;14.004;2023-01-29T02:57:24;99039.56;;;4.40;70.48
3260;BME280;22469;48.150;14.004;2023-01-29T02:59:58;99039.72;;;4.57;70.11
3260;BME280;22469;48.150;14.004;2023-01-29T03:02:37;99043.13;;;4.59;69.89
3260;BME280;22469;48.150;14.004;2023-01-29T03:05:20;99044.09;;;4.73;69.57
3260;BME280;22469;48.150;14.004;2023-01-29T03:07:58;99036.50;;;4.78;68.71
3260;BME280;22469;48.150;14.004;2023-01-29T03:10:36;99034.84;;;4.84;69.04
3260;BME280;22469;48.150;14.004;2023-01-29T03:13:14;99045.88;;;4.83;68.93
3260;BME280;22469;48.150;14.004;2023-01-29T03:15:48;99040.78;;;4.83;69.17
3260;BME280;22469;48.150;14.004;2023-01-29T03:18:31;99039.97;;;4.87;69.00
3260;BME280;22469;48.150;14.004;2023-01-29T03:21:10;99034.09;;;4.94;69.58
3260;BME280;22469;48.150;14.004;2023-01-29T03:24:00;99033.97;;;4.79;68.83
3260;BME280;22469;48.150;14.004;2023-01-29T03:26:48;99040.81;;;4.86;69.15
3260;BME280;22469;48.150;14.004;2023-01-29T03:29:35;99035.63;;;4.72;69.43
3260;BME280;22469;48.150;14.004;2023-01-29T03:32:23;99031.34;;;4.65;69.68
3260;BME280;22469;48.150;14.004;2023-01-29T03:34:57;99044.94;;;4.72;69.48
3260;BME280;22469;48.150;14.004;2023-01-29T03:37:46;99033.09;;;4.77;69.99
3260;BME280;22469;48.150;14.004;2023-01-29T03:40:14;99041.53;;;4.70;70.22
3260;BME280;22469;48.150;14.004;2023-01-29T03:43:06;99031.38;;;4.74;70.17
3260;BME280;22469;48.150;14.004;2023-01-29T03:46:04;99022.09;;;4.77;70.41
3260;BME280;22469;48.150;14.004;2023-01-29T03:51:54;99022.81;;;4.59;70.45
3260;BME280;22469;48.150;14.004;2023-01-29T03:54:58;99020.34;;;4.69;69.84
3260;BME280;22469;48.150;14.004;2023-01-29T04:00:19;99027.69;;;4.34;69.82
3260;BME280;22469;48.150;14.004;2023-01-29T04:05:54;99024.22;;;4.31;69.95
3260;BME280;22469;48.150;14.004;2023-01-29T04:08:44;99024.22;;;4.31;68.91
3260;BME280;22469;48.150;14.004;2023-01-29T04:11:26;99021.72;;;4.34;68.43
3260;BME280;22469;48.150;14.004;2023-01-29T04:13:57;99023.53;;;4.45;68.35
3260;BME280;22469;48.150;14.004;2023-01-29T04:16:28;99023.22;;;4.13;68.76
3260;BME280;22469;48.150;14.004;2023-01-29T04:18:59;99021.56;;;4.14;68.31
3260;BME280;22469;48.150;14.004;2023-01-29T04:21:27;99019.78;;;4.10;68.23
3260;BME280;22469;48.150;14.004;2023-01-29T04:23:57;99018.13;;;4.12;67.74
3260;BME280;22469;48.150;14.004;2023-01-29T04:26:52;99025.06;;;4.28;67.39
3260;BME280;22469;48.150;14.004;2023-01-29T04:29:54;99018.03;;;4.01;67.40
3260;BME280;22469;48.150;14.004;2023-01-29T04:37:43;99019.09;;;4.23;66.80
3260;BME280;22469;48.150;14.004;2023-01-29T04:41:01;99012.38;;;4.30;66.24
3260;BME280;22469;48.150;14.004;2023-01-29T05:00:43;99027.84;;;4.53;64.68
3260;BME280;22469;48.150;14.004;2023-01-29T05:03:14;99024.47;;;4.57;64.14
3260;BME280;22469;48.150;14.004;2023-01-29T05:05:45;99027.81;;;4.54;63.87
3260;BME280;22469;48.150;14.004;2023-01-29T05:08:17;99026.16;;;4.58;64.11
3260;BME280;22469;48.150;14.004;2023-01-29T05:10:50;99027.91;;;4.62;64.18
3260;BME280;22469;48.150;14.004;2023-01-29T05:13:20;99029.59;;;4.63;63.76
3260;BME280;22469;48.150;14.004;2023-01-29T05:15:52;99022.78;;;4.56;64.13
3260;BME280;22469;48.150;14.004;2023-01-29T05:18:22;99029.53;;;4.52;64.22
3260;BME280;22469;48.150;14.004;2023-01-29T05:20:49;99026.94;;;4.50;64.52
3260;BME280;22469;48.150;14.004;2023-01-29T05:23:17;99027.88;;;4.59;64.82
3260;BME280;22469;48.150;14.004;2023-01-29T05:25:47;99027.06;;;4.63;64.57
3260;BME280;22469;48.150;14.004;2023-01-29T05:28:16;99021.16;;;4.67;64.66
3260;BME280;22469;48.150;14.004;2023-01-29T05:30:49;99020.25;;;4.56;64.52
3260;BME280;22469;48.150;14.004;2023-01-29T05:33:20;99021.06;;;4.55;64.33
3260;BME280;22469;48.150;14.004;2023-01-29T05:35:49;99022.78;;;4.56;64.57
3260;BME280;22469;48.150;14.004;2023-01-29T05:38:18;99034.47;;;4.38;64.70
3260;BME280;22469;48.150;14.004;2023-01-29T05:40:46;99025.94;;;4.32;64.71
3260;BME280;22469;48.150;14.004;2023-01-29T05:43:19;99030.22;;;4.37;65.20
3260;BME280;22469;48.150;14.004;2023-01-29T05:45:58;99032.81;;;4.42;64.78
3260;BME280;22469;48.150;14.004;2023-01-29T05:48:27;99029.44;;;4.41;65.29
3260;BME280;22469;48.150;14.004;2023-01-29T05:51:01;99032.78;;;4.40;65.12
3260;BME280;22469;48.150;14.004;2023-01-29T05:53:31;99028.53;;;4.35;65.13
3260;BME280;22469;48.150;14.004;2023-01-29T05:56:03;99035.28;;;4.37;64.78
3260;BME280;22469;48.150;14.004;2023-01-29T05:58:31;99035.97;;;4.18;65.27
3260;BME280;22469;48.150;14.004;2023-01-29T06:01:14;99034.31;;;4.23;64.48
3260;BME280;22469;48.150;14.004;2023-01-29T06:03:44;99046.78;;;4.01;65.01
3260;BME280;22469;48.150;14.004;2023-01-29T06:06:12;99045.84;;;3.92;64.98
3260;BME280;22469;48.150;14.004;2023-01-29T06:08:40;99052.75;;;4.03;64.09
3260;BME280;22469;48.150;14.004;2023-01-29T06:11:09;99040.84;;;3.99;64.86
3260;BME280;22469;48.150;14.004;2023-01-29T06:13:38;99037.97;;;3.72;65.18
3260;BME280;22469;48.150;14.004;2023-01-29T06:16:09;99038.78;;;3.66;65.71
3260;BME280;22469;48.150;14.004;2023-01-29T06:18:38;99043.13;;;3.76;65.47
3260;BME280;22469;48.150;14.004;2023-01-29T06:21:08;99046.44;;;3.69;65.12
3260;BME280;22469;48.150;14.004;2023-01-29T06:23:36;99037.34;;;3.88;65.03
3260;BME280;22469;48.150;14.004;2023-01-29T06:26:06;99040.84;;;3.99;64.83
3260;BME280;22469;48.150;14.004;2023-01-29T06:28:37;99034.06;;;4.00;64.71
3260;BME280;22469;48.150;14.004;2023-01-29T06:31:05;99041.78;;;4.08;65.16
3260;BME280;22469;48.150;14.004;2023-01-29T06:33:53;99038.50;;;4.18;64.38
3260;BME280;22469;48.150;14.004;2023-01-29T06:36:20;99040.97;;;4.13;64.42
3260;BME280;22469;48.150;14.004;2023-01-29T06:38:47;99032.56;;;4.14;64.31
3260;BME280;22469;48.150;14.004;2023-01-29T06:41:17;99034.19;;;4.08;64.37
3260;BME280;22469;48.150;14.004;2023-01-29T06:43:45;99041.88;;;4.14;64.21
3260;BME280;22469;48.150;14.004;2023-01-29T06:46:13;99042.59;;;4.03;63.89
3260;BME280;22469;48.150;14.004;2023-01-29T06:48:40;99034.94;;;4.02;64.36
3260;BME280;22469;48.150;14.004;2023-01-29T06:51:08;99038.41;;;4.10;63.94
3260;BME280;22469;48.150;14.004;2023-01-29T06:53:38;99047.69;;;4.05;63.48
3260;BME280;22469;48.150;14.004;2023-01-29T06:56:06;99044.25;;;4.03;64.27
3260;BME280;22469;48.150;14.004;2023-01-29T06:58:37;99042.69;;;4.13;64.07
3260;BME280;22469;48.150;14.004;2023-01-29T07:01:07;99038.44;;;4.13;64.13
3260;BME280;22469;48.150;14.004;2023-01-29T07:03:36;99040.13;;;4.11;63.78
3260;BME280;22469;48.150;14.004;2023-01-29T07:06:04;99035.88;;;4.09;64.42
3260;BME280;22469;48.150;14.004;2023-01-29T07:08:35;99035.09;;;4.14;64.00
3260;BME280;22469;48.150;14.004;2023-01-29T07:11:06;99030.75;;;4.04;63.17
3260;BME280;22469;48.150;14.004;2023-01-29T07:13:33;99028.31;;;4.15;63.40
3260;BME280;22469;48.150;14.004;2023-01-29T07:16:02;99026.50;;;4.03;62.02
3260;BME280;22469;48.150;14.004;2023-01-29T07:18:31;99042.50;;;3.94;62.15
3260;BME280;22469;48.150;14.004;2023-01-29T07:21:03;99037.41;;;3.94;61.89
3260;BME280;22469;48.150;14.004;2023-01-29T07:23:34;99037.41;;;3.94;61.91
3260;BME280;22469;48.150;14.004;2023-01-29T07:26:04;99037.41;;;3.94;61.67
3260;BME280;22469;48.150;14.004;2023-01-29T07:28:36;99032.31;;;3.93;61.39
3260;BME280;22469;48.150;14.004;2023-01-29T07:31:05;99033.13;;;3.90;60.96
3260;BME280;22469;48.150;14.004;2023-01-29T07:33:33;99038.16;;;3.86;61.16
3260;BME280;22469;48.150;14.004;2023-01-29T07:36:01;99046.53;;;3.77;61.72
3260;BME280;22469;48.150;14.004;2023-01-29T07:38:28;99035.59;;;3.86;61.18
3260;BME280;22469;48.150;14.004;2023-01-29T07:40:55;99045.00;;;3.91;61.51
3260;BME280;22469;48.150;14.004;2023-01-29T07:43:22;99041.53;;;3.83;60.76
3260;BME280;22469;48.150;14.004;2023-01-29T07:45:50;99036.41;;;3.82;61.13
3260;BME280;22469;48.150;14.004;2023-01-29T07:48:18;99027.19;;;3.87;61.51
3260;BME280;22469;48.150;14.004;2023-01-29T07:50:53;99022.06;;;3.84;61.13
3260;BME280;22469;48.150;14.004;2023-01-29T07:53:22;99022.16;;;3.91;61.09
3260;BME280;22469;48.150;14.004;2023-01-29T07:55:49;99017.94;;;3.93;61.66
3260;BME280;22469;48.150;14.004;2023-01-29T07:58:17;99012.75;;;3.84;61.20
3260;BME280;22469;48.150;14.004;2023-01-29T08:00:44;99009.50;;;3.94;61.37
3260;BME280;22469;48.150;14.004;2023-01-29T08:03:14;99016.38;;;4.06;61.40
3260;BME280;22469;48.150;14.004;2023-01-29T08:05:43;99019.78;;;4.08;61.11
3260;BME280;22469;48.150;14.004;2023-01-29T08:08:11;99033.31;;;4.07;60.87
3260;BME280;22469;48.150;14.004;2023-01-29T08:10:39;99029.97;;;4.11;60.92
3260;BME280;22469;48.150;14.004;2023-01-29T08:13:07;99036.59;;;3.97;60.85
3260;BME280;22469;48.150;14.004;2023-01-29T08:15:35;99041.66;;;3.95;61.37
3260;BME280;22469;48.150;14.004;2023-01-29T08:18:22;99040.06;;;4.03;60.88
3260;BME280;22469;48.150;14.004;2023-01-29T08:20:49;99046.03;;;4.07;60.91
3260;BME280;22469;48.150;14.004;2023-01-29T08:23:18;99043.34;;;3.95;60.62
3260;BME280;22469;48.150;14.004;2023-01-29T08:25:45;99049.22;;;3.92;60.79
3260;BME280;22469;48.150;14.004;2023-01-29T08:28:12;99045.13;;;4.05;61.03
3260;BME280;22469;48.150;14.004;2023-01-29T08:30:39;99046.94;;;4.15;60.43
3260;BME280;22469;48.150;14.004;2023-01-29T08:33:07;99047.84;;;4.22;60.62
3260;BME280;22469;48.150;14.004;2023-01-29T08:35:34;99056.06;;;3.99;60.15
3260;BME280;22469;48.150;14.004;2023-01-29T08:38:03;99056.75;;;3.86;60.19
3260;BME280;22469;48.150;14.004;2023-01-29T08:40:32;99064.28;;;3.77;60.90
3260;BME280;22469;48.150;14.004;2023-01-29T08:43:05;99067.06;;;3.97;60.47
3260;BME280;22469;48.150;14.004;2023-01-29T08:45:40;99065.28;;;3.91;59.71
3260;BME280;22469;48.150;14.004;2023-01-29T08:48:09;99079.53;;;3.82;60.94
3260;BME280;22469;48.150;14.004;2023-01-29T08:50:37;99082.25;;;3.94;60.50
3260;BME280;22469;48.150;14.004;2023-01-29T08:53:06;99082.22;;;3.92;59.73
3260;BME280;22469;48.150;14.004;2023-01-29T08:55:36;99083.94;;;3.96;59.06
3260;BME280;22469;48.150;14.004;2023-01-29T08:58:08;99093.25;;;3.96;59.30
3260;BME280;22469;48.150;14.004;2023-01-29T09:00:37;99088.09;;;3.87;58.74
3260;BME280;22469;48.150;14.004;2023-01-29T09:03:04;99088.13;;;3.91;58.70
3260;BME280;22469;48.150;14.004;2023-01-29T09:05:35;99094.13;;;3.98;58.62
3260;BME280;22469;48.150;14.004;2023-01-29T09:08:05;99097.53;;;4.00;57.81
3260;BME280;22469;48.150;14.004;2023-01-29T09:10:33;99098.41;;;4.00;58.48
3260;BME280;22469;48.150;14.004;2023-01-29T09:13:01;99097.59;;;4.06;58.71
3260;BME280;22469;48.150;14.004;2023-01-29T09:15:28;99104.25;;;3.95;57.88
3260;BME280;22469;48.150;14.004;2023-01-29T09:17:55;99108.59;;;4.03;57.61
3260;BME280;22469;48.150;14.004;2023-01-29T09:20:22;99101.03;;;4.10;58.00
3260;BME280;22469;48.150;14.004;2023-01-29T09:22:49;99113.63;;;4.02;58.08
3260;BME280;22469;48.150;14.004;2023-01-29T09:25:19;99110.97;;;3.91;58.46
3260;BME280;22469;48.150;14.004;2023-01-29T09:27:46;99117.03;;;4.01;57.37
3260;BME280;22469;48.150;14.004;2023-01-29T09:30:13;99112.91;;;4.12;57.58
3260;BME280;22469;48.150;14.004;2023-01-29T09:32:41;99106.22;;;4.17;57.64
3260;BME280;22469;48.150;14.004;2023-01-29T09:35:19;99112.19;;;4.21;57.46
3260;BME280;22469;48.150;14.004;2023-01-29T09:37:48;99112.22;;;4.24;57.31
3260;BME280;22469;48.150;14.004;2023-01-29T09:40:22;99116.50;;;4.30;57.42
3260;BME280;22469;48.150;14.004;2023-01-29T09:43:18;99110.66;;;4.37;57.04
3260;BME280;22469;48.150;14.004;2023-01-29T09:46:00;99118.34;;;4.41;56.74
3260;BME280;22469;48.150;14.004;2023-01-29T09:48:33;99119.94;;;4.35;56.49
3260;BME280;22469;48.150;14.004;2023-01-29T09:51:06;99119.22;;;4.45;56.62
3260;BME280;22469;48.150;14.004;2023-01-29T09:53:57;99120.81;;;4.37;56.26
3260;BME280;22469;48.150;14.004;2023-01-29T09:56:30;99123.16;;;4.18;55.83
3260;BME280;22469;48.150;14.004;2023-01-29T09:58:58;99134.16;;;4.20;56.67
3260;BME280;22469;48.150;14.004;2023-01-29T10:01:54;99126.56;;;4.23;55.93
3260;BME280;22469;48.150;14.004;2023-01-29T10:07:42;99124.03;;;4.22;55.96
3260;BME280;22469;48.150;14.004;2023-01-29T10:25:13;99132.25;;;4.01;56.44
3260;BME280;22469;48.150;14.004;2023-01-29T10:27:47;99128.94;;;4.08;56.28
3260;BME280;22469;48.150;14.004;2023-01-29T10:30:35;99122.94;;;4.01;55.94
3260;BME280;22469;48.150;14.004;2023-01-29T10:33:12;99127.97;;;4.00;56.15
3260;BME280;22469;48.150;14.004;2023-01-29T10:36:25;99118.00;;;4.12;56.53
3260;BME280;22469;48.150;14.004;2023-01-29T10:38:58;99122.94;;;4.03;56.41
3260;BME280;22469;48.150;14.004;2023-01-29T10:41:32;99114.69;;;4.19;56.55
3260;BME280;22469;48.150;14.004;2023-01-29T10:49:45;99117.22;;;4.19;56.07
3260;BME280;22469;48.150;14.004;2023-01-29T10:58:25;99091.34;;;4.53;55.83
3260;BME280;22469;48.150;14.004;2023-01-29T11:00:55;99077.78;;;4.52;55.49
3260;BME280;22469;48.150;14.004;2023-01-29T11:03:25;99077.81;;;4.57;56.15
3260;BME280;22469;48.150;14.004;2023-01-29T11:06:00;99066.97;;;4.73;56.38
3260;BME280;22469;48.150;14.004;2023-01-29T11:08:42;99067.03;;;4.79;56.08
3260;BME280;22469;48.150;14.004;2023-01-29T11:11:17;99056.81;;;4.78;55.11
3260;BME280;22469;48.150;14.004;2023-01-29T11:16:26;99054.84;;;4.41;56.05
3260;BME280;22469;48.150;14.004;2023-01-29T11:18:59;99048.09;;;4.46;55.56
3260;BME280;22469;48.150;14.004;2023-01-29T11:21:28;99050.81;;;4.68;56.36
3260;BME280;22469;48.150;14.004;2023-01-29T11:24:13;99045.91;;;4.88;55.27
3260;BME280;22469;48.150;14.004;2023-01-29T11:26:47;99051.88;;;4.94;55.43
3260;BME280;22469;48.150;14.004;2023-01-29T11:29:44;99041.50;;;4.67;54.91
3260;BME280;22469;48.150;14.004;2023-01-29T11:37:35;99035.75;;;4.89;54.32
3260;BME280;22469;48.150;14.004;2023-01-29T11:42:46;99023.03;;;4.86;55.10
3260;BME280;22469;48.150;14.004;2023-01-29T11:45:28;99017.09;;;4.92;55.14
3260;BME280;22469;48.150;14.004;2023-01-29T11:47:58;99015.38;;;4.83;54.74
3260;BME280;22469;48.150;14.004;2023-01-29T11:50:27;99012.13;;;5.03;55.27
3260;BME280;22469;48.150;14.004;2023-01-29T11:52:57;99005.16;;;4.75;54.62
3260;BME280;22469;48.150;14.004;2023-01-29T11:55:27;99002.50;;;4.62;54.48
3260;BME280;22469;48.150;14.004;2023-01-29T11:58:25;98992.97;;;4.36;55.61
3260;BME280;22469;48.150;14.004;2023-01-29T12:00:56;98998.06;;;4.39;55.45
3260;BME280;22469;48.150;14.004;2023-01-29T12:05:59;98990.47;;;4.39;55.27
3260;BME280;22469;48.150;14.004;2023-01-29T12:08:37;98975.97;;;4.29;55.87
3260;BME280;22469;48.150;14.004;2023-01-29T12:16:57;98978.84;;;4.69;56.19
3260;BME280;22469;48.150;14.004;2023-01-29T12:25:00;98960.31;;;4.84;54.91
3260;BME280;22469;48.150;14.004;2023-01-29T12:27:37;98960.75;;;4.31;54.12
3260;BME280;22469;48.150;14.004;2023-01-29T12:30:19;98950.59;;;4.34;55.78
3260;BME280;22469;48.150;14.004;2023-01-29T12:33:05;98946.25;;;4.19;56.62
3260;BME280;22469;48.150;14.004;2023-01-29T12:35:44;98944.47;;;4.09;56.75
3260;BME280;22469;48.150;14.004;2023-01-29T12:38:17;98936.94;;;4.16;55.88
3260;BME280;22469;48.150;14.004;2023-01-29T12:40:52;98936.31;;;4.45;55.81
3260;BME280;22469;48.150;14.004;2023-01-29T12:43:52;98934.47;;;4.25;55.37
3260;BME280;22469;48.150;14.004;2023-01-29T12:46:26;98925.31;;;4.47;55.56
3260;BME280;22469;48.150;14.004;2023-01-29T12:48:59;98928.00;;;4.67;53.94
3260;BME280;22469;48.150;14.004;2023-01-29T12:51:36;98920.44;;;4.72;54.47
3260;BME280;22469;48.150;14.004;2023-01-29T12:54:09;98914.44;;;4.67;53.49
3260;BME280;22469;48.150;14.004;2023-01-29T12:56:50;98918.59;;;4.53;55.57
3260;BME280;22469;48.150;14.004;2023-01-29T13:05:04;98903.38;;;4.57;55.22
3260;BME280;22469;48.150;14.004;2023-01-29T13:07:50;98903.91;;;4.15;55.76
3260;BME280;22469;48.150;14.004;2023-01-29T13:10:26;98892.09;;;4.20;54.90
3260;BME280;22469;48.150;14.004;2023-01-29T13:13:01;98884.50;;;4.23;56.00
3260;BME280;22469;48.150;14.004;2023-01-29T13:15:37;98882.22;;;4.60;55.23
3260;BME280;22469;48.150;14.004;2023-01-29T13:21:04;98882.13;;;4.44;54.29
3260;BME280;22469;48.150;14.004;2023-01-29T13:23:48;98884.53;;;4.24;56.58
3260;BME280;22469;48.150;14.004;2023-01-29T13:26:18;98885.28;;;4.13;56.04
3260;BME280;22469;48.150;14.004;2023-01-29T13:28:47;98885.56;;;4.48;55.46
3260;BME280;22469;48.150;14.004;2023-01-29T13:31:31;98882.03;;;4.31;55.05
3260;BME280;22469;48.150;14.004;2023-01-29T13:34:15;98883.84;;;4.47;55.18
3260;BME280;22469;48.150;14.004;2023-01-29T13:36:53;98877.84;;;4.37;54.96
3260;BME280;22469;48.150;14.004;2023-01-29T13:39:31;98885.59;;;4.57;54.50
3260;BME280;22469;48.150;14.004;2023-01-29T13:42:17;98885.66;;;4.68;54.32
3260;BME280;22469;48.150;14.004;2023-01-29T13:44:55;98889.09;;;4.78;54.42
3260;BME280;22469;48.150;14.004;2023-01-29T13:47:31;98892.41;;;4.64;54.85
3260;BME280;22469;48.150;14.004;2023-01-29T13:50:01;98884.94;;;4.92;55.07
3260;BME280;22469;48.150;14.004;2023-01-29T13:52:42;98886.59;;;4.79;55.12
3260;BME280;22469;48.150;14.004;2023-01-29T13:55:27;98892.53;;;4.86;55.09
3260;BME280;22469;48.150;14.004;2023-01-29T13:58:04;98892.53;;;4.84;54.28
3260;BME280;22469;48.150;14.004;2023-01-29T14:08:01;98873.06;;;4.91;54.09
3260;BME280;22469;48.150;14.004;2023-01-29T14:10:33;98858.69;;;5.02;54.68
3260;BME280;22469;48.150;14.004;2023-01-29T14:15:31;98857.91;;;5.12;53.37
3260;BME280;22469;48.150;14.004;2023-01-29T14:20:57;98863.03;;;5.20;53.72
3260;BME280;22469;48.150;14.004;2023-01-29T14:24:08;98863.00;;;5.15;54.08
3260;BME280;22469;48.150;14.004;2023-01-29T14:26:44;98860.44;;;5.09;54.45
3260;BME280;22469;48.150;14.004;2023-01-29T14:29:24;98860.50;;;5.20;54.38
3260;BME280;22469;48.150;14.004;2023-01-29T14:37:34;98838.44;;;5.13;54.44
3260;BME280;22469;48.150;14.004;2023-01-29T14:42:53;98835.84;;;5.08;55.00
3260;BME280;22469;48.150;14.004;2023-01-29T14:48:02;98839.22;;;4.99;55.68
3260;BME280;22469;48.150;14.004;2023-01-29T14:56:44;98836.69;;;4.99;55.52
3260;BME280;22469;48.150;14.004;2023-01-29T15:02:23;98835.66;;;4.62;55.60
3260;BME280;22469;48.150;14.004;2023-01-29T15:05:01;98834.13;;;4.93;55.18
3260;BME280;22469;48.150;14.004;2023-01-29T15:07:36;98842.63;;;5.09;54.89
3260;BME280;22469;48.150;14.004;2023-01-29T15:10:37;98850.31;;;5.21;54.36
3260;BME280;22469;48.150;14.004;2023-01-29T15:13:23;98840.13;;;5.14;54.97
3260;BME280;22469;48.150;14.004;2023-01-29T15:16:05;98843.53;;;5.22;54.62
3260;BME280;22469;48.150;14.004;2023-01-29T15:18:41;98846.91;;;5.19;54.25
3260;BME280;22469;48.150;14.004;2023-01-29T15:21:16;98851.19;;;5.23;54.57
3260;BME280;22469;48.150;14.004;2023-01-29T15:23:46;98856.25;;;5.28;54.42
3260;BME280;22469;48.150;14.004;2023-01-29T15:28:58;98843.50;;;5.16;54.64
3260;BME280;22469;48.150;14.004;2023-01-29T15:31:30;98851.13;;;5.10;55.11
3260;BME280;22469;48.150;14.004;2023-01-29T15:34:03;98853.69;;;5.14;54.86
3260;BME280;22469;48.150;14.004;2023-01-29T15:36:32;98857.06;;;5.19;54.71
3260;BME280;22469;48.150;14.004;2023-01-29T15:41:49;98851.00;;;4.84;55.48
3260;BME280;22469;48.150;14.004;2023-01-29T15:44:20;98856.16;;;4.97;55.54
3260;BME280;22469;48.150;14.004;2023-01-29T15:46:54;98862.75;;;4.65;55.29
3260;BME280;22469;48.150;14.004;2023-01-29T15:49:53;98854.97;;;4.37;56.13
3260;BME280;22469;48.150;14.004;2023-01-29T15:52:27;98861.00;;;4.55;55.79
3260;BME280;22469;48.150;14.004;2023-01-29T15:55:03;98848.34;;;4.61;55.36
3260;BME280;22469;48.150;14.004;2023-01-29T15:57:36;98854.22;;;4.50;55.08
3260;BME280;22469;48.150;14.004;2023-01-29T16:00:16;98848.41;;;4.65;55.50
3260;BME280;22469;48.150;14.004;2023-01-29T16:02:47;98851.00;;;4.81;54.95
3260;BME280;22469;48.150;14.004;2023-01-29T16:05:32;98844.25;;;4.90;54.82
3260;BME280;22469;48.150;14.004;2023-01-29T16:08:00;98852.72;;;4.86;54.99
3260;BME280;22469;48.150;14.004;2023-01-29T16:10:30;98856.09;;;4.84;54.86
3260;BME280;22469;48.150;14.004;2023-01-29T16:12:58;98867.19;;;4.96;54.96
3260;BME280;22469;48.150;14.004;2023-01-29T16:15:32;98869.56;;;4.67;54.92
3260;BME280;22469;48.150;14.004;2023-01-29T16:18:36;98868.47;;;4.24;55.62